Impacts TAF Board
For situational awareness. Not to be used for flight planning purposes.
IDs:

KMWH - Moses Lake/Grant Cnt, WA, US

Issued at 2333 UTC 05 Dec 2019
Updated at 0103 UTC 06 Dec 2019
Potential Impact None Slight Moderate High
Time0052Z 06/02Z 06/03Z 06/04Z 06/05Z 06/06Z 06/07Z 06/08Z 06/09Z 06/10Z 06/11Z 06/12Z 06/13Z 06/14Z>>
Type OBS PRVL
  [TEMP]  
PRVL
  [TEMP]  
PRVL PRVL PRVL PRVL PRVL PRVL PRVL PRVL PRVL PRVL PRVL
VIS 7 6
  [6]  
6
  [6]  
3 3 3 3 3 3 3 3 2 2 2
CIG 37 40
  [25]  
40
  [25]  
35 35 35 35 35 35 35 35 3 3 3
Cover OVC OVC
  [BKN]  
OVC
  [BKN]  
OVC OVC OVC OVC OVC OVC OVC OVC OVC OVC OVC
FltCat VFR VFR
  [MVFR]  
VFR
  [MVFR]  
MVFR MVFR MVFR MVFR MVFR MVFR MVFR MVFR LIFR LIFR LIFR
WX -- BR
  [--]  
BR
  [--]  
BR BR BR BR BR BR BR BR BR BR BR
WDir 130 VRB
[VRB]
VRB
[VRB]
VRB VRB VRB VRB VRB VRB VRB VRB 120 120 120
WSpd 4 0
  [0]  
0
  [0]  
3 3 3 3 3 3 3 3 3 3 3
WGst -- --
  [--]  
--
  [--]  
-- -- -- -- -- -- -- -- -- -- --
Raw TAF
KMWH 052333Z 0600/0624 00000KT 6SM BR OVC040
  TEMPO 0600/0604 6SM BKN025
  FM060400 VRB03KT 3SM BR OVC035
  FM061200 12003KT 2SM BR OVC003
  FM062000 VRB03KT 6SM BR SCT025 BKN050 BKN090


Raw METAR
KMWH 060052Z 13004KT 7SM OVC037 03/01 A3013 RMK AO2 SLP216 T00330006
KMWH 052352Z 15003KT 6SM BR SCT025 OVC041 03/01 A3014 RMK AO2 SLP219 T00330011 10039 20006 53008
KMWH 052323Z 16003KT 6SM HZ BKN024 OVC046 04/01 A3014 RMK AO2 T00390011
KMWH 052252Z 11003KT 7SM OVC043 04/01 A3013 RMK AO2 SLP215 T00390011

METAR Board
Radar Display
Forecast Discussion
For situational awareness. Not to be used for flight planning purposes.